createdAt,value
2022-09-23T00:01:20.813Z,8.27
2022-09-23T00:03:52.549Z,8.23
2022-09-23T00:06:23.942Z,8.25
2022-09-23T00:08:52.997Z,8.17
2022-09-23T00:11:25.635Z,8.21
2022-09-23T00:13:59.038Z,8.17
2022-09-23T00:16:31.347Z,8.11
2022-09-23T00:18:58.114Z,8.13
2022-09-23T00:21:25.299Z,8.04
2022-09-23T00:23:52.333Z,8.10
2022-09-23T00:26:23.280Z,8.09
2022-09-23T00:28:50.796Z,8.04
2022-09-23T00:31:23.336Z,8.02
2022-09-23T00:33:57.588Z,8.02
2022-09-23T00:36:25.191Z,7.98
2022-09-23T00:38:55.210Z,7.94
2022-09-23T00:41:22.077Z,7.95
2022-09-23T00:43:58.110Z,7.82
2022-09-23T00:46:43.473Z,7.86
2022-09-23T00:49:18.689Z,7.89
2022-09-23T00:51:54.294Z,7.85
2022-09-23T00:54:27.964Z,7.85
2022-09-23T00:56:55.641Z,7.83
2022-09-23T00:59:24.423Z,7.74
2022-09-23T01:01:54.892Z,7.67
2022-09-23T01:04:26.490Z,7.71
2022-09-23T01:06:55.874Z,7.64
2022-09-23T01:09:25.664Z,7.55
2022-09-23T01:12:04.511Z,7.56
2022-09-23T01:14:53.025Z,7.57
2022-09-23T01:17:32.763Z,7.59
2022-09-23T01:20:44.826Z,7.63
2022-09-23T01:23:48.946Z,7.62
2022-09-23T01:26:27.656Z,7.59
2022-09-23T01:29:15.174Z,7.56
2022-09-23T01:32:00.290Z,7.54
2022-09-23T01:34:48.535Z,7.51
2022-09-23T01:37:28.718Z,7.51
2022-09-23T01:40:07.167Z,7.41
2022-09-23T01:42:39.643Z,7.49
2022-09-23T01:45:17.519Z,7.47
2022-09-23T01:47:56.060Z,7.27
2022-09-23T01:50:48.307Z,7.11
2022-09-23T01:53:38.875Z,7.16
2022-09-23T01:56:12.201Z,7.15
2022-09-23T01:58:48.861Z,7.23
2022-09-23T02:01:21.890Z,7.25
2022-09-23T02:03:55.875Z,7.19
2022-09-23T02:06:28.292Z,7.16
2022-09-23T02:09:02.413Z,7.19
2022-09-23T02:11:36.389Z,7.21
2022-09-23T02:14:11.769Z,7.21
2022-09-23T02:16:44.787Z,7.17
2022-09-23T02:19:15.554Z,7.23
2022-09-23T02:21:47.526Z,7.20
2022-09-23T02:24:20.948Z,7.22
2022-09-23T02:26:54.562Z,7.21
2022-09-23T02:29:45.312Z,7.18
2022-09-23T02:32:23.139Z,7.15
2022-09-23T02:35:15.631Z,7.14
2022-09-23T02:37:54.821Z,7.09
2022-09-23T02:40:31.099Z,7.01
2022-09-23T02:43:22.539Z,7.03
2022-09-23T02:45:50.169Z,6.99
2022-09-23T02:48:24.476Z,6.98
2022-09-23T02:50:51.009Z,7.00
2022-09-23T02:53:22.489Z,7.00
2022-09-23T02:55:50.185Z,6.98
2022-09-23T02:58:17.371Z,6.96
2022-09-23T03:00:46.205Z,6.97
2022-09-23T03:03:33.615Z,6.91
2022-09-23T03:06:10.798Z,6.89
2022-09-23T03:08:58.241Z,6.92
2022-09-23T03:11:27.340Z,6.89
2022-09-23T03:14:22.480Z,6.83
2022-09-23T03:16:55.927Z,6.78
2022-09-23T03:19:42.741Z,6.77
2022-09-23T03:22:18.671Z,6.74
2022-09-23T03:24:53.767Z,6.84
2022-09-23T03:27:28.556Z,6.75
2022-09-23T03:29:56.400Z,6.84
2022-09-23T03:32:28.170Z,6.88
2022-09-23T03:34:58.552Z,6.91
2022-09-23T03:37:35.758Z,6.86
2022-09-23T03:40:43.616Z,6.90
2022-09-23T03:43:14.115Z,6.85
2022-09-23T03:45:43.437Z,6.80
2022-09-23T03:48:13.771Z,6.84
2022-09-23T03:50:40.468Z,6.81
2022-09-23T03:53:09.541Z,6.78
2022-09-23T03:55:39.421Z,6.87
2022-09-23T03:58:08.045Z,6.83
2022-09-23T04:00:37.076Z,6.80
2022-09-23T04:03:10.907Z,6.72
2022-09-23T04:05:41.670Z,6.78
2022-09-23T04:08:08.203Z,6.79
2022-09-23T04:10:34.734Z,6.60
2022-09-23T04:13:01.649Z,6.63
2022-09-23T04:15:28.554Z,6.59
2022-09-23T04:17:55.130Z,6.59
2022-09-23T04:20:24.186Z,6.67
2022-09-23T04:22:55.525Z,6.63
2022-09-23T04:25:22.322Z,6.55
2022-09-23T04:27:48.878Z,6.55
2022-09-23T04:30:15.563Z,6.55
2022-09-23T04:32:44.475Z,6.53
2022-09-23T04:35:11.107Z,6.49
2022-09-23T04:37:37.644Z,6.53
2022-09-23T04:40:12.146Z,6.52
2022-09-23T04:42:41.586Z,6.60
2022-09-23T04:45:08.477Z,6.53
2022-09-23T04:47:35.017Z,6.32
2022-09-23T04:50:04.254Z,6.58
2022-09-23T04:52:35.716Z,6.49
2022-09-23T04:55:02.457Z,6.52
2022-09-23T04:57:31.279Z,6.55
2022-09-23T04:59:58.053Z,6.49
2022-09-23T05:02:25.013Z,6.51
2022-09-23T05:04:53.875Z,6.47
2022-09-23T05:07:20.504Z,6.51
2022-09-23T05:09:47.302Z,6.47
2022-09-23T05:12:16.985Z,6.51
2022-09-23T05:14:43.580Z,6.51
2022-09-23T05:17:15.548Z,6.51
2022-09-23T05:19:42.539Z,6.52
2022-09-23T05:22:09.067Z,6.56
2022-09-23T05:24:35.600Z,6.51
2022-09-23T05:27:07.315Z,6.49
2022-09-23T05:29:35.042Z,6.72
2022-09-23T05:32:04.766Z,6.71
2022-09-23T05:34:32.682Z,6.74
2022-09-23T05:37:04.488Z,6.83
2022-09-23T05:39:33.355Z,6.89
2022-09-23T05:42:02.132Z,6.98
2022-09-23T05:44:28.644Z,7.02
2022-09-23T05:46:55.258Z,6.97
2022-09-23T05:49:33.015Z,7.02
2022-09-23T05:52:10.761Z,7.17
2022-09-23T05:54:37.926Z,7.28
2022-09-23T05:57:06.823Z,7.32
2022-09-23T05:59:36.066Z,7.37
2022-09-23T06:02:02.673Z,7.28
2022-09-23T06:04:29.327Z,7.54
2022-09-23T06:07:00.273Z,7.61
2022-09-23T06:09:36.314Z,7.70
2022-09-23T06:12:03.644Z,7.82
2022-09-23T06:14:32.711Z,7.99
2022-09-23T06:17:01.765Z,8.01
2022-09-23T06:19:28.306Z,8.15
2022-09-23T06:21:58.161Z,8.19
2022-09-23T06:24:30.805Z,8.36
2022-09-23T06:26:57.964Z,8.43
2022-09-23T06:29:26.705Z,8.43
2022-09-23T06:31:55.952Z,8.39
2022-09-23T06:34:22.607Z,8.59
2022-09-23T06:36:53.871Z,8.56
2022-09-23T06:39:20.477Z,8.53
2022-09-23T06:41:47.066Z,8.58
2022-09-23T06:44:16.045Z,8.73
2022-09-23T06:46:43.203Z,8.85
2022-09-23T06:49:10.643Z,8.74
2022-09-23T06:51:37.205Z,8.74
2022-09-23T06:54:06.243Z,8.92
2022-09-23T06:56:39.118Z,9.07
2022-09-23T06:59:09.278Z,9.05
2022-09-23T07:01:38.630Z,8.92
2022-09-23T07:04:05.897Z,8.96
2022-09-23T07:06:32.621Z,9.08
2022-09-23T07:08:59.218Z,9.15
2022-09-23T07:11:27.045Z,9.18
2022-09-23T07:13:53.891Z,9.18
2022-09-23T07:16:21.356Z,9.23
2022-09-23T07:18:50.195Z,9.22
2022-09-23T07:21:18.795Z,9.38
2022-09-23T07:23:47.810Z,9.35
2022-09-23T07:26:18.128Z,9.44
2022-09-23T07:28:47.608Z,9.74
2022-09-23T07:31:33.175Z,9.84
2022-09-23T07:34:03.385Z,9.84
2022-09-23T07:36:32.890Z,10.10
2022-09-23T07:39:03.516Z,10.36
2022-09-23T07:41:32.211Z,10.37
2022-09-23T07:44:00.535Z,10.51
2022-09-23T07:46:30.694Z,10.57
2022-09-23T07:48:57.489Z,10.67
2022-09-23T07:51:35.453Z,10.96
2022-09-23T07:54:02.848Z,11.01
2022-09-23T07:56:32.384Z,11.18
2022-09-23T07:59:04.560Z,11.25
2022-09-23T08:01:40.029Z,11.44
2022-09-23T08:04:17.158Z,11.51
2022-09-23T08:06:45.681Z,11.54
2022-09-23T08:09:15.787Z,11.67
2022-09-23T08:11:42.450Z,11.64
2022-09-23T08:14:14.363Z,11.47
2022-09-23T08:16:42.309Z,11.63
2022-09-23T08:19:09.222Z,11.70
2022-09-23T08:21:37.659Z,11.55
2022-09-23T08:24:04.249Z,11.74
2022-09-23T08:26:34.650Z,11.74
2022-09-23T08:29:03.676Z,11.55
2022-09-23T08:31:33.244Z,11.53
2022-09-23T08:34:04.529Z,11.89
2022-09-23T08:36:31.358Z,11.76
2022-09-23T08:38:57.981Z,11.72
2022-09-23T08:41:36.456Z,12.01
2022-09-23T08:44:11.239Z,12.04
2022-09-23T08:46:46.733Z,12.08
2022-09-23T08:49:20.078Z,11.95
2022-09-23T08:51:48.483Z,12.14
2022-09-23T08:54:20.911Z,12.41
2022-09-23T08:56:58.652Z,12.31
2022-09-23T08:59:44.500Z,12.67
2022-09-23T09:02:30.567Z,12.84
2022-09-23T09:05:03.746Z,12.67
2022-09-23T09:07:37.701Z,12.62
2022-09-23T09:10:21.463Z,12.98
2022-09-23T09:13:01.730Z,13.13
2022-09-23T09:15:28.713Z,13.28
2022-09-23T09:18:03.758Z,13.40
2022-09-23T09:20:57.218Z,13.42
2022-09-23T09:23:32.830Z,13.65
2022-09-23T09:26:02.505Z,13.74
2022-09-23T09:28:49.351Z,13.90
2022-09-23T09:31:39.891Z,14.03
2022-09-23T09:34:06.433Z,14.11
2022-09-23T09:36:57.844Z,14.07
2022-09-23T09:39:27.584Z,14.32
2022-09-23T09:41:59.683Z,14.49
2022-09-23T09:44:37.143Z,14.42
2022-09-23T09:47:47.393Z,14.63
2022-09-23T09:50:38.547Z,14.72
2022-09-23T09:53:21.867Z,14.91
2022-09-23T09:56:13.467Z,14.95
2022-09-23T09:58:50.586Z,15.05
2022-09-23T10:01:24.962Z,15.06
2022-09-23T10:03:57.056Z,15.29
2022-09-23T10:06:29.911Z,15.41
2022-09-23T10:09:08.770Z,15.34
2022-09-23T10:11:38.779Z,15.38
2022-09-23T10:14:12.415Z,15.60
2022-09-23T10:16:43.888Z,15.67
2022-09-23T10:19:26.976Z,15.72
2022-09-23T10:21:56.976Z,15.76
2022-09-23T10:24:37.106Z,15.93
2022-09-23T10:27:12.964Z,15.91
2022-09-23T10:29:50.968Z,15.98
2022-09-23T10:32:29.144Z,16.00
2022-09-23T10:35:02.216Z,16.05
2022-09-23T10:37:34.864Z,16.23
2022-09-23T10:40:44.818Z,16.27
2022-09-23T10:43:36.962Z,16.41
2022-09-23T10:46:26.863Z,16.30
2022-09-23T10:48:53.496Z,16.34
2022-09-23T10:51:54.190Z,16.32
2022-09-23T10:54:31.737Z,16.33
2022-09-23T10:57:25.173Z,16.46
2022-09-23T10:59:56.006Z,16.48
2022-09-23T11:02:41.214Z,16.43
2022-09-23T11:05:26.830Z,16.55
2022-09-23T11:08:28.946Z,16.66
2022-09-23T11:11:34.160Z,16.79
2022-09-23T11:14:27.826Z,16.92
2022-09-23T11:17:25.988Z,16.99
2022-09-23T11:20:05.316Z,16.85
2022-09-23T11:22:50.716Z,16.93
2022-09-23T11:25:28.308Z,16.92
2022-09-23T11:28:03.921Z,17.16
2022-09-23T11:30:49.955Z,17.16
2022-09-23T11:33:36.880Z,17.28
2022-09-23T11:36:18.517Z,17.36
2022-09-23T11:38:48.507Z,17.41
2022-09-23T11:41:43.274Z,17.41
2022-09-23T11:44:21.037Z,17.58
2022-09-23T11:46:58.549Z,17.52
2022-09-23T11:49:39.278Z,17.69
2022-09-23T11:52:33.420Z,17.76
2022-09-23T11:55:15.631Z,17.67
2022-09-23T11:57:52.607Z,17.86
2022-09-23T12:00:24.449Z,17.99
2022-09-23T12:03:05.478Z,18.15
2022-09-23T12:06:05.510Z,18.07
2022-09-23T12:08:39.410Z,17.98
2022-09-23T12:11:20.351Z,18.09
2022-09-23T12:13:55.528Z,18.19
2022-09-23T12:16:42.885Z,18.36
2022-09-23T12:19:36.946Z,18.42
2022-09-23T12:22:26.686Z,18.57
2022-09-23T12:25:30.844Z,18.62
2022-09-23T12:28:06.710Z,18.63
2022-09-23T12:30:38.258Z,18.76
2022-09-23T12:33:32.789Z,18.72
2022-09-23T12:36:05.022Z,18.81
2022-09-23T12:38:52.081Z,18.95
2022-09-23T12:41:27.024Z,18.89
2022-09-23T12:44:14.445Z,18.95
2022-09-23T12:46:46.004Z,19.08
2022-09-23T12:49:26.662Z,19.13
2022-09-23T12:52:12.035Z,19.42
2022-09-23T12:54:40.151Z,19.41
2022-09-23T12:57:12.383Z,19.43
2022-09-23T12:59:54.060Z,19.55
2022-09-23T13:02:28.654Z,19.63
2022-09-23T13:05:38.179Z,19.53
2022-09-23T13:08:09.383Z,19.45
2022-09-23T13:11:02.865Z,19.51
2022-09-23T13:13:34.497Z,19.54
2022-09-23T13:16:14.072Z,19.32
2022-09-23T13:18:51.012Z,19.22
2022-09-23T13:21:39.403Z,19.48
2022-09-23T13:24:25.406Z,19.54
2022-09-23T13:27:12.873Z,19.66
2022-09-23T13:30:04.229Z,19.77
2022-09-23T13:32:44.248Z,20.02
2022-09-23T13:35:15.996Z,20.24
2022-09-23T13:37:51.445Z,20.32
2022-09-23T13:40:20.199Z,20.31
2022-09-23T13:43:03.653Z,20.35
2022-09-23T13:45:31.484Z,20.35
2022-09-23T13:48:07.600Z,20.39
2022-09-23T13:50:38.599Z,20.33
2022-09-23T13:53:11.956Z,20.32
2022-09-23T13:55:40.026Z,20.41
2022-09-23T13:58:23.923Z,20.16
2022-09-23T14:00:51.716Z,20.23
2022-09-23T14:03:25.131Z,19.99
2022-09-23T14:05:53.020Z,20.02
2022-09-23T14:08:20.329Z,20.10
2022-09-23T14:10:47.871Z,20.18
2022-09-23T14:13:25.940Z,20.23
2022-09-23T14:15:55.241Z,20.20
2022-09-23T14:18:46.785Z,20.29
2022-09-23T14:21:40.259Z,20.43
2022-09-23T14:24:19.308Z,20.35
2022-09-23T14:26:54.634Z,20.04
2022-09-23T14:29:28.333Z,19.97
2022-09-23T14:32:04.124Z,20.06
2022-09-23T14:34:42.772Z,20.09
2022-09-23T14:37:37.096Z,20.22
2022-09-23T14:40:12.451Z,20.24
2022-09-23T14:42:44.522Z,20.31
2022-09-23T14:45:19.636Z,20.23
2022-09-23T14:47:54.756Z,20.07
2022-09-23T14:50:40.524Z,20.01
2022-09-23T14:53:35.130Z,19.87
2022-09-23T14:56:07.776Z,19.72
2022-09-23T14:58:55.543Z,19.62
2022-09-23T15:01:31.451Z,19.56
2022-09-23T15:04:22.936Z,19.52
2022-09-23T15:07:01.410Z,19.55
2022-09-23T15:09:32.979Z,19.49
2022-09-23T15:12:02.365Z,19.37
2022-09-23T15:14:38.254Z,19.23
2022-09-23T15:17:16.769Z,19.02
2022-09-23T15:19:43.703Z,18.89
2022-09-23T15:22:13.333Z,18.94
2022-09-23T15:24:50.013Z,18.75
2022-09-23T15:27:35.297Z,18.94
2022-09-23T15:30:17.673Z,18.84
2022-09-23T15:32:47.297Z,18.84
2022-09-23T15:35:21.483Z,18.81
2022-09-23T15:37:50.732Z,18.81
2022-09-23T15:40:21.105Z,18.78
2022-09-23T15:42:52.569Z,18.76
2022-09-23T15:45:26.283Z,18.70
2022-09-23T15:48:53.160Z,18.76
2022-09-23T15:51:23.161Z,18.76
2022-09-23T15:54:34.931Z,18.63
2022-09-23T15:57:02.220Z,18.11
2022-09-23T15:59:31.019Z,18.62
2022-09-23T16:02:05.773Z,18.50
2022-09-23T16:04:32.428Z,18.41
2022-09-23T16:06:59.144Z,18.39
2022-09-23T16:09:28.255Z,18.28
2022-09-23T16:11:55.242Z,18.25
2022-09-23T16:14:21.874Z,18.18
2022-09-23T16:16:51.073Z,18.07
2022-09-23T16:19:17.824Z,17.96
2022-09-23T16:21:44.870Z,17.93
2022-09-23T16:24:17.610Z,17.88
2022-09-23T16:26:46.587Z,17.88
2022-09-23T16:29:15.581Z,17.82
2022-09-23T16:31:44.633Z,17.68
2022-09-23T16:34:13.428Z,17.62
2022-09-23T16:36:45.938Z,17.59
2022-09-23T16:39:13.764Z,17.58
2022-09-23T16:41:41.154Z,17.43
2022-09-23T16:44:10.801Z,17.40
2022-09-23T16:46:42.862Z,17.34
2022-09-23T16:49:12.152Z,17.36
2022-09-23T16:51:38.945Z,17.07
2022-09-23T16:54:10.325Z,17.14
2022-09-23T16:56:41.711Z,17.20
2022-09-23T16:59:08.345Z,17.01
2022-09-23T17:01:56.175Z,17.00
2022-09-23T17:04:23.199Z,16.99
2022-09-23T17:06:53.461Z,16.84
2022-09-23T17:09:22.430Z,16.79
2022-09-23T17:12:07.778Z,16.59
2022-09-23T17:14:34.708Z,16.71
2022-09-23T17:17:01.304Z,16.22
2022-09-23T17:19:30.769Z,16.31
2022-09-23T17:21:57.291Z,16.12
2022-09-23T17:24:23.836Z,16.13
2022-09-23T17:26:53.435Z,16.07
2022-09-23T17:29:22.507Z,15.97
2022-09-23T17:32:03.728Z,15.95
2022-09-23T17:34:31.868Z,15.81
2022-09-23T17:36:58.389Z,15.88
2022-09-23T17:39:27.327Z,15.79
2022-09-23T17:41:58.612Z,15.86
2022-09-23T17:44:27.926Z,15.78
2022-09-23T17:46:58.547Z,15.67
2022-09-23T17:49:25.094Z,15.63
2022-09-23T17:51:51.743Z,15.62
2022-09-23T17:54:23.388Z,15.59
2022-09-23T17:56:49.962Z,15.61
2022-09-23T17:59:16.576Z,15.58
2022-09-23T18:01:46.237Z,15.54
2022-09-23T18:04:12.857Z,15.59
2022-09-23T18:06:42.184Z,15.53
2022-09-23T18:09:10.102Z,15.64
2022-09-23T18:11:39.275Z,15.61
2022-09-23T18:14:14.054Z,15.59
2022-09-23T18:16:42.026Z,15.54
2022-09-23T18:19:14.954Z,15.46
2022-09-23T18:21:56.128Z,15.48
2022-09-23T18:24:38.935Z,15.29
2022-09-23T18:27:08.302Z,15.23
2022-09-23T18:29:35.212Z,15.17
2022-09-23T18:32:04.452Z,15.04
2022-09-23T18:34:31.047Z,15.02
2022-09-23T18:37:02.767Z,14.97
2022-09-23T18:39:29.328Z,15.02
2022-09-23T18:41:55.930Z,14.94
2022-09-23T18:44:23.855Z,14.92
2022-09-23T18:46:50.411Z,14.88
2022-09-23T18:49:35.214Z,14.91
2022-09-23T18:52:04.655Z,14.97
2022-09-23T18:54:33.497Z,14.92
2022-09-23T18:57:00.167Z,14.93
2022-09-23T18:59:33.661Z,14.92
2022-09-23T19:02:00.400Z,14.88
2022-09-23T19:04:27.642Z,14.83
2022-09-23T19:06:56.669Z,14.81
2022-09-23T19:09:30.775Z,14.72
2022-09-23T19:11:57.957Z,14.63
2022-09-23T19:14:24.659Z,14.30
2022-09-23T19:16:53.752Z,14.37
2022-09-23T19:19:20.352Z,14.34
2022-09-23T19:21:49.388Z,14.32
2022-09-23T19:24:19.880Z,14.34
2022-09-23T19:26:46.649Z,14.36
2022-09-23T19:29:19.495Z,14.38
2022-09-23T19:31:48.876Z,14.30
2022-09-23T19:34:22.716Z,14.31
2022-09-23T19:36:49.375Z,14.23
2022-09-23T19:39:23.811Z,14.20
2022-09-23T19:41:52.814Z,14.10
2022-09-23T19:44:20.220Z,14.18
2022-09-23T19:46:53.551Z,14.18
2022-09-23T19:49:24.600Z,14.14
2022-09-23T19:51:55.957Z,14.11
2022-09-23T19:54:27.463Z,14.06
2022-09-23T19:56:56.933Z,14.06
2022-09-23T19:59:23.554Z,14.00
2022-09-23T20:01:50.277Z,13.96
2022-09-23T20:04:20.785Z,13.93
2022-09-23T20:06:49.684Z,13.97
2022-09-23T20:09:16.309Z,13.89
2022-09-23T20:11:43.044Z,13.87
2022-09-23T20:14:15.641Z,13.92
2022-09-23T20:16:45.620Z,13.92
2022-09-23T20:19:14.458Z,13.89
2022-09-23T20:21:43.254Z,13.86
2022-09-23T20:24:14.859Z,13.92
2022-09-23T20:27:02.240Z,13.88
2022-09-23T20:29:28.913Z,13.75
2022-09-23T20:31:57.015Z,13.63
2022-09-23T20:34:23.901Z,13.59
2022-09-23T20:36:50.429Z,13.58
2022-09-23T20:39:19.185Z,13.51
2022-09-23T20:41:46.127Z,13.59
2022-09-23T20:44:13.057Z,13.50
2022-09-23T20:46:50.048Z,13.49
2022-09-23T20:49:20.883Z,13.50
2022-09-23T20:51:48.799Z,13.47
2022-09-23T20:54:20.194Z,13.46
2022-09-23T20:56:48.018Z,13.55
2022-09-23T20:59:15.035Z,13.51
2022-09-23T21:01:45.786Z,13.58
2022-09-23T21:04:12.608Z,13.60
2022-09-23T21:06:41.808Z,13.61
2022-09-23T21:09:10.588Z,13.55
2022-09-23T21:11:38.035Z,13.59
2022-09-23T21:14:07.046Z,13.63
2022-09-23T21:16:38.767Z,13.64
2022-09-23T21:19:08.065Z,13.58
2022-09-23T21:21:37.630Z,13.60
2022-09-23T21:24:31.291Z,13.52
2022-09-23T21:26:51.018Z,13.54
2022-09-23T21:29:18.110Z,13.45
2022-09-23T21:31:45.346Z,13.47
2022-09-23T21:34:12.695Z,13.40
2022-09-23T21:36:48.094Z,13.42
2022-09-23T21:39:17.640Z,13.37
2022-09-23T21:41:46.680Z,13.21
2022-09-23T21:44:16.004Z,13.25
2022-09-23T21:46:45.827Z,13.19
2022-09-23T21:49:16.945Z,13.15
2022-09-23T21:51:45.781Z,13.16
2022-09-23T21:54:17.163Z,13.06
2022-09-23T21:56:44.269Z,13.05
2022-09-23T21:59:15.597Z,13.05
2022-09-23T22:01:44.959Z,13.04
2022-09-23T22:04:17.908Z,12.98
2022-09-23T22:06:49.038Z,12.99
2022-09-23T22:09:18.853Z,12.97
2022-09-23T22:12:04.804Z,12.93
2022-09-23T22:14:33.813Z,12.94
2022-09-23T22:17:05.339Z,12.86
2022-09-23T22:19:40.322Z,12.88
2022-09-23T22:22:17.411Z,12.77
2022-09-23T22:24:46.201Z,12.80
2022-09-23T22:27:17.749Z,12.83
2022-09-23T22:30:02.704Z,12.81
2022-09-23T22:32:41.127Z,12.85
2022-09-23T22:35:16.708Z,12.88
2022-09-23T22:37:48.639Z,12.87
2022-09-23T22:40:17.826Z,12.90
2022-09-23T22:42:47.424Z,12.88
2022-09-23T22:45:16.571Z,12.81
2022-09-23T22:47:46.029Z,12.75
2022-09-23T22:50:16.593Z,12.82
2022-09-23T22:52:43.189Z,12.83
2022-09-23T22:55:10.628Z,12.86
2022-09-23T22:57:39.390Z,12.84
2022-09-23T23:00:10.437Z,12.84
2022-09-23T23:02:40.010Z,12.78
2022-09-23T23:05:08.522Z,12.79
2022-09-23T23:07:36.214Z,12.79
2022-09-23T23:10:03.983Z,12.76
2022-09-23T23:12:30.508Z,12.72
2022-09-23T23:14:59.277Z,12.76
2022-09-23T23:17:25.955Z,12.77
2022-09-23T23:19:55.342Z,12.78
2022-09-23T23:22:24.161Z,12.86
2022-09-23T23:24:52.686Z,12.87
2022-09-23T23:27:21.463Z,12.90
2022-09-23T23:29:48.070Z,12.81
2022-09-23T23:32:17.247Z,12.84
2022-09-23T23:34:43.864Z,12.77
2022-09-23T23:37:10.535Z,12.70
2022-09-23T23:39:39.918Z,12.82
2022-09-23T23:42:06.515Z,12.90
2022-09-23T23:44:35.366Z,12.92
2022-09-23T23:47:02.135Z,12.96
2022-09-23T23:49:28.893Z,13.00
2022-09-23T23:51:57.942Z,12.96
2022-09-23T23:54:24.890Z,13.01
2022-09-23T23:56:53.730Z,13.04
2022-09-23T23:59:20.880Z,13.00
